PWSweather.com
Personal Weather Stations
Station Observations
MADWEATHER
MadeiraPT

MadeiraPT

Lat: 32.735, Lon: -17.194

Elevation: 1063

Station Type: Davis VantagePro2

www.mad-weather.com

High Low Average
Temperature 78.4°F25.8°C 63.1°F17.3°C 69.5°F20.8°C
Dew Point 69.5°F20.8°C 60.4°F15.8°C 65.6°F18.7°C
Winds 6.1 mph 9.8 kmh Calm Calm 2.0 mph SSW3.2 kmh SSW
Wind Gusts 10.0 mph16.1 kmh -- 3.0 mph4.8 kmh
Humidity 95% 73% 88%
Pressure 30.06 in1017.9 mb 30.00 in1015.9 mb -
Precipitation 0.00 in0.0 mm - -
Hour Temp Dew Point Humidity Winds Wind Gusts Pressure Precip Precip Rate Daily Precip Total
12:00 AM 65.5°F18.6°C 62.5°F16.9°C 90% Calm Calm -- 30.03 in1016.9 mb - 0.00 in0.0 mm 0.00 in0.0 mm
12:10 AM 65.4°F18.6°C 62.3°F16.8°C 90% Calm Calm -- 30.03 in1016.9 mb - 0.00 in0.0 mm 0.00 in0.0 mm
12:20 AM 65.3°F18.5°C 62.3°F16.8°C 90% Calm Calm -- 30.03 in1016.9 mb - 0.00 in0.0 mm 0.00 in0.0 mm
12:30 AM 65.4°F18.6°C 62.4°F16.9°C 90% Calm Calm -- 30.03 in1016.9 mb - 0.00 in0.0 mm 0.00 in0.0 mm
12:40 AM 65.6°F18.7°C 62.9°F17.2°C 91% Calm Calm -- 30.03 in1016.9 mb - 0.00 in0.0 mm 0.00 in0.0 mm
12:50 AM 65.5°F18.6°C 63.1°F17.3°C 92% Calm Calm -- 30.03 in1016.9 mb - 0.00 in0.0 mm 0.00 in0.0 mm
01:00 AM 65.5°F18.6°C 62.8°F17.1°C 91% Calm Calm -- 30.03 in1016.9 mb - 0.00 in0.0 mm 0.00 in0.0 mm
01:10 AM 65.0°F18.3°C 62.0°F16.7°C 90% Calm Calm -- 30.02 in1016.6 mb - 0.00 in0.0 mm 0.00 in0.0 mm
01:20 AM 64.9°F18.3°C 61.9°F16.6°C 90% Calm Calm -- 30.02 in1016.6 mb - 0.00 in0.0 mm 0.00 in0.0 mm
01:30 AM 65.0°F18.3°C 62.0°F16.7°C 90% Calm Calm -- 30.02 in1016.6 mb - 0.00 in0.0 mm 0.00 in0.0 mm
01:40 AM 64.9°F18.3°C 61.9°F16.6°C 90% Calm Calm -- 30.02 in1016.6 mb - 0.00 in0.0 mm 0.00 in0.0 mm
01:50 AM 64.9°F18.3°C 61.9°F16.6°C 90% Calm Calm -- 30.02 in1016.6 mb - 0.00 in0.0 mm 0.00 in0.0 mm
02:00 AM 65.1°F18.4°C 62.4°F16.9°C 91% Calm Calm -- 30.02 in1016.6 mb - 0.00 in0.0 mm 0.00 in0.0 mm
02:10 AM 65.1°F18.4°C 62.4°F16.9°C 91% Calm Calm -- 30.02 in1016.6 mb - 0.00 in0.0 mm 0.00 in0.0 mm
02:20 AM 64.9°F18.3°C 62.2°F16.8°C 91% Calm Calm -- 30.01 in1016.3 mb - 0.00 in0.0 mm 0.00 in0.0 mm
02:30 AM 64.4°F18.0°C 61.7°F16.5°C 91% 0.5 mph SSW0.8 kmh SSW 1.0 mph1.6 kmh 30.01 in1016.3 mb - 0.00 in0.0 mm 0.00 in0.0 mm
02:40 AM 63.8°F17.7°C 60.5°F15.8°C 89% Calm Calm -- 30.01 in1016.3 mb - 0.00 in0.0 mm 0.00 in0.0 mm
02:50 AM 63.9°F17.7°C 60.6°F15.9°C 89% Calm Calm -- 30.01 in1016.3 mb - 0.00 in0.0 mm 0.00 in0.0 mm
03:00 AM 64.7°F18.2°C 61.7°F16.5°C 90% Calm Calm -- 30.01 in1016.3 mb - 0.00 in0.0 mm 0.00 in0.0 mm
03:10 AM 64.2°F17.9°C 60.5°F15.8°C 88% Calm Calm -- 30.01 in1016.3 mb - 0.00 in0.0 mm 0.00 in0.0 mm
03:20 AM 64.0°F17.8°C 60.4°F15.8°C 88% Calm Calm -- 30.00 in1015.9 mb - 0.00 in0.0 mm 0.00 in0.0 mm
03:30 AM 64.4°F18.0°C 60.8°F16.0°C 88% Calm Calm -- 30.00 in1015.9 mb - 0.00 in0.0 mm 0.00 in0.0 mm
03:40 AM 64.5°F18.1°C 61.2°F16.2°C 89% Calm Calm -- 30.00 in1015.9 mb - 0.00 in0.0 mm 0.00 in0.0 mm
03:50 AM 64.8°F18.2°C 61.8°F16.6°C 90% Calm Calm -- 30.00 in1015.9 mb - 0.00 in0.0 mm 0.00 in0.0 mm
04:00 AM 64.1°F17.8°C 60.8°F16.0°C 89% Calm Calm -- 30.00 in1015.9 mb - 0.00 in0.0 mm 0.00 in0.0 mm
04:10 AM 64.4°F18.0°C 61.4°F16.3°C 90% 1.9 mph SSW3.1 kmh SSW 3.0 mph4.8 kmh 30.01 in1016.3 mb - 0.00 in0.0 mm 0.00 in0.0 mm
04:20 AM 64.6°F18.1°C 61.6°F16.4°C 90% 2.1 mph SSW3.4 kmh SSW 3.0 mph4.8 kmh 30.01 in1016.3 mb - 0.00 in0.0 mm 0.00 in0.0 mm
04:30 AM 64.9°F18.3°C 62.5°F16.9°C 92% 1.7 mph SSW2.7 kmh SSW 2.0 mph3.2 kmh 30.01 in1016.3 mb - 0.00 in0.0 mm 0.00 in0.0 mm
04:40 AM 64.9°F18.3°C 62.5°F16.9°C 92% 2.9 mph SSW4.7 kmh SSW 4.0 mph6.4 kmh 30.01 in1016.3 mb - 0.00 in0.0 mm 0.00 in0.0 mm
04:50 AM 65.0°F18.3°C 62.6°F17.0°C 92% 2.4 mph SSW3.9 kmh SSW 4.0 mph6.4 kmh 30.01 in1016.3 mb - 0.00 in0.0 mm 0.00 in0.0 mm
05:00 AM 64.8°F18.2°C 62.7°F17.1°C 93% 2.3 mph SSW3.7 kmh SSW 3.0 mph4.8 kmh 30.00 in1015.9 mb - 0.00 in0.0 mm 0.00 in0.0 mm
05:10 AM 64.5°F18.1°C 62.4°F16.9°C 93% 0.4 mph SSW0.6 kmh SSW 2.0 mph3.2 kmh 30.01 in1016.3 mb - 0.00 in0.0 mm 0.00 in0.0 mm
05:20 AM 64.7°F18.2°C 62.6°F17.0°C 93% 0.8 mph SSW1.3 kmh SSW 2.0 mph3.2 kmh 30.02 in1016.6 mb - 0.00 in0.0 mm 0.00 in0.0 mm
05:30 AM 64.9°F18.3°C 62.8°F17.1°C 93% Calm Calm -- 30.01 in1016.3 mb - 0.00 in0.0 mm 0.00 in0.0 mm
05:40 AM 64.8°F18.2°C 63.1°F17.3°C 94% Calm Calm -- 30.01 in1016.3 mb - 0.00 in0.0 mm 0.00 in0.0 mm
05:50 AM 64.7°F18.2°C 62.9°F17.2°C 94% Calm Calm -- 30.01 in1016.3 mb - 0.00 in0.0 mm 0.00 in0.0 mm
06:00 AM 64.7°F18.2°C 62.9°F17.2°C 94% Calm Calm -- 30.01 in1016.3 mb - 0.00 in0.0 mm 0.00 in0.0 mm
06:10 AM 64.2°F17.9°C 62.4°F16.9°C 94% Calm Calm -- 30.01 in1016.3 mb - 0.00 in0.0 mm 0.00 in0.0 mm
06:20 AM 63.9°F17.7°C 62.2°F16.8°C 94% Calm Calm -- 30.01 in1016.3 mb - 0.00 in0.0 mm 0.00 in0.0 mm
06:30 AM 63.9°F17.7°C 62.1°F16.7°C 94% Calm Calm -- 30.02 in1016.6 mb - 0.00 in0.0 mm 0.00 in0.0 mm
06:40 AM 63.7°F17.6°C 61.9°F16.6°C 94% Calm Calm -- 30.02 in1016.6 mb - 0.00 in0.0 mm 0.00 in0.0 mm
06:50 AM 63.1°F17.3°C 61.3°F16.3°C 94% Calm Calm -- 30.02 in1016.6 mb - 0.00 in0.0 mm 0.00 in0.0 mm
07:00 AM 64.0°F17.8°C 62.2°F16.8°C 94% 1.2 mph SSW1.9 kmh SSW 2.0 mph3.2 kmh 30.02 in1016.6 mb - 0.00 in0.0 mm 0.00 in0.0 mm
07:10 AM 64.6°F18.1°C 63.1°F17.3°C 95% 1.6 mph SSW2.6 kmh SSW 4.0 mph6.4 kmh 30.03 in1016.9 mb - 0.00 in0.0 mm 0.00 in0.0 mm
07:20 AM 65.0°F18.3°C 63.6°F17.6°C 95% 2.1 mph SSW3.4 kmh SSW 3.0 mph4.8 kmh 30.03 in1016.9 mb - 0.00 in0.0 mm 0.00 in0.0 mm
07:30 AM 65.3°F18.5°C 63.8°F17.7°C 95% 3.7 mph SSW6.0 kmh SSW 5.0 mph8.0 kmh 30.03 in1016.9 mb - 0.00 in0.0 mm 0.00 in0.0 mm
07:40 AM 65.3°F18.5°C 63.8°F17.7°C 95% 3.6 mph SSW5.8 kmh SSW 4.0 mph6.4 kmh 30.04 in1017.3 mb - 0.00 in0.0 mm 0.00 in0.0 mm
07:50 AM 65.5°F18.6°C 64.0°F17.8°C 95% 0.5 mph SSW0.8 kmh SSW 1.0 mph1.6 kmh 30.04 in1017.3 mb - 0.00 in0.0 mm 0.00 in0.0 mm
08:00 AM 65.8°F18.8°C 64.3°F17.9°C 95% 0.6 mph SSW1.0 kmh SSW 1.0 mph1.6 kmh 30.04 in1017.3 mb - 0.00 in0.0 mm 0.00 in0.0 mm
08:10 AM 66.3°F19.1°C 64.8°F18.2°C 95% 0.1 mph SSW0.2 kmh SSW -- 30.04 in1017.3 mb - 0.00 in0.0 mm 0.00 in0.0 mm
08:20 AM 66.7°F19.3°C 64.9°F18.3°C 94% Calm Calm -- 30.05 in1017.6 mb - 0.00 in0.0 mm 0.00 in0.0 mm
08:30 AM 67.2°F19.6°C 65.5°F18.6°C 94% 1.4 mph SSW2.3 kmh SSW 2.0 mph3.2 kmh 30.05 in1017.6 mb - 0.00 in0.0 mm 0.00 in0.0 mm
08:40 AM 67.8°F19.9°C 66.0°F18.9°C 94% 0.5 mph SSW0.8 kmh SSW -- 30.05 in1017.6 mb - 0.00 in0.0 mm 0.00 in0.0 mm
08:50 AM 68.5°F20.3°C 66.1°F18.9°C 92% 0.5 mph SSW0.8 kmh SSW -- 30.04 in1017.3 mb - 0.00 in0.0 mm 0.00 in0.0 mm
09:00 AM 69.0°F20.6°C 66.2°F19.0°C 91% 1.9 mph SSW3.1 kmh SSW 2.0 mph3.2 kmh 30.04 in1017.3 mb - 0.00 in0.0 mm 0.00 in0.0 mm
09:10 AM 70.1°F21.2°C 66.7°F19.3°C 89% 1.9 mph SSW3.1 kmh SSW 5.0 mph8.0 kmh 30.04 in1017.3 mb - 0.00 in0.0 mm 0.00 in0.0 mm
09:20 AM 70.1°F21.2°C 66.4°F19.1°C 88% 1.2 mph SSW1.9 kmh SSW 3.0 mph4.8 kmh 30.04 in1017.3 mb - 0.00 in0.0 mm 0.00 in0.0 mm
09:30 AM 69.7°F20.9°C 65.7°F18.7°C 87% 3.1 mph SSW5.0 kmh SSW 5.0 mph8.0 kmh 30.04 in1017.3 mb - 0.00 in0.0 mm 0.00 in0.0 mm
09:40 AM 69.8°F21.0°C 65.7°F18.7°C 87% 2.5 mph SSW4.0 kmh SSW 3.0 mph4.8 kmh 30.04 in1017.3 mb - 0.00 in0.0 mm 0.00 in0.0 mm
09:50 AM 70.2°F21.2°C 66.4°F19.1°C 88% Calm Calm -- 30.04 in1017.3 mb - 0.00 in0.0 mm 0.00 in0.0 mm
10:00 AM 71.7°F22.1°C 67.6°F19.8°C 87% 0.1 mph SSW0.2 kmh SSW -- 30.04 in1017.3 mb - 0.00 in0.0 mm 0.00 in0.0 mm
10:10 AM 73.0°F22.8°C 67.5°F19.7°C 83% 2.5 mph SSW4.0 kmh SSW 4.0 mph6.4 kmh 30.04 in1017.3 mb - 0.00 in0.0 mm 0.00 in0.0 mm
10:20 AM 73.2°F22.9°C 67.4°F19.7°C 82% 1.0 mph SSW1.6 kmh SSW 3.0 mph4.8 kmh 30.04 in1017.3 mb - 0.00 in0.0 mm 0.00 in0.0 mm
10:30 AM 74.4°F23.6°C 67.8°F19.9°C 80% 1.8 mph SSW2.9 kmh SSW 4.0 mph6.4 kmh 30.04 in1017.3 mb - 0.00 in0.0 mm 0.00 in0.0 mm
10:40 AM 75.0°F23.9°C 68.4°F20.2°C 80% 3.7 mph SSW6.0 kmh SSW 5.0 mph8.0 kmh 30.04 in1017.3 mb - 0.00 in0.0 mm 0.00 in0.0 mm
10:50 AM 74.6°F23.7°C 67.6°F19.8°C 79% 2.8 mph SSW4.5 kmh SSW 5.0 mph8.0 kmh 30.04 in1017.3 mb - 0.00 in0.0 mm 0.00 in0.0 mm
11:00 AM 74.2°F23.4°C 67.6°F19.8°C 80% 0.6 mph SSW1.0 kmh SSW 3.0 mph4.8 kmh 30.04 in1017.3 mb - 0.00 in0.0 mm 0.00 in0.0 mm
11:10 AM 75.4°F24.1°C 68.4°F20.2°C 79% 2.3 mph SSW3.7 kmh SSW 4.0 mph6.4 kmh 30.04 in1017.3 mb - 0.00 in0.0 mm 0.00 in0.0 mm
11:20 AM 75.7°F24.3°C 68.4°F20.2°C 78% 0.4 mph SSW0.6 kmh SSW 1.0 mph1.6 kmh 30.04 in1017.3 mb - 0.00 in0.0 mm 0.00 in0.0 mm
11:30 AM 76.4°F24.7°C 68.3°F20.2°C 76% 1.9 mph SSW3.1 kmh SSW 4.0 mph6.4 kmh 30.03 in1016.9 mb - 0.00 in0.0 mm 0.00 in0.0 mm
11:40 AM 76.1°F24.5°C 67.6°F19.8°C 75% 1.3 mph SSW2.1 kmh SSW 3.0 mph4.8 kmh 30.03 in1016.9 mb - 0.00 in0.0 mm 0.00 in0.0 mm
11:50 AM 75.4°F24.1°C 67.3°F19.6°C 76% 0.6 mph SSW1.0 kmh SSW 2.0 mph3.2 kmh 30.03 in1016.9 mb - 0.00 in0.0 mm 0.00 in0.0 mm
12:00 PM 75.6°F24.2°C 67.9°F19.9°C 77% 2.7 mph SSW4.3 kmh SSW 4.0 mph6.4 kmh 30.03 in1016.9 mb - 0.00 in0.0 mm 0.00 in0.0 mm
12:10 PM 77.1°F25.1°C 68.6°F20.3°C 75% 2.7 mph SSW4.3 kmh SSW 5.0 mph8.0 kmh 30.03 in1016.9 mb - 0.00 in0.0 mm 0.00 in0.0 mm
12:20 PM 77.9°F25.5°C 69.0°F20.6°C 74% 2.8 mph SSW4.5 kmh SSW 5.0 mph8.0 kmh 30.03 in1016.9 mb - 0.00 in0.0 mm 0.00 in0.0 mm
12:30 PM 77.3°F25.2°C 68.7°F20.4°C 75% 2.5 mph SSW4.0 kmh SSW 4.0 mph6.4 kmh 30.03 in1016.9 mb - 0.00 in0.0 mm 0.00 in0.0 mm
12:40 PM 78.1°F25.6°C 69.2°F20.7°C 74% 2.4 mph SSW3.9 kmh SSW 5.0 mph8.0 kmh 30.03 in1016.9 mb - 0.00 in0.0 mm 0.00 in0.0 mm
12:50 PM 78.0°F25.6°C 68.6°F20.3°C 73% 4.9 mph SSW7.9 kmh SSW 7.0 mph11.3 kmh 30.03 in1016.9 mb - 0.00 in0.0 mm 0.00 in0.0 mm
01:00 PM 78.4°F25.8°C 69.4°F20.8°C 74% 1.9 mph SSW3.1 kmh SSW 4.0 mph6.4 kmh 30.03 in1016.9 mb - 0.00 in0.0 mm 0.00 in0.0 mm
01:10 PM 77.3°F25.2°C 68.8°F20.4°C 75% 4.1 mph SSW6.6 kmh SSW 6.0 mph9.7 kmh 30.03 in1016.9 mb - 0.00 in0.0 mm 0.00 in0.0 mm
01:20 PM 75.6°F24.2°C 69.0°F20.6°C 80% 4.6 mph SSW7.4 kmh SSW 7.0 mph11.3 kmh 30.04 in1017.3 mb - 0.00 in0.0 mm 0.00 in0.0 mm
01:30 PM 75.4°F24.1°C 68.8°F20.4°C 80% 3.3 mph SSW5.3 kmh SSW 4.0 mph6.4 kmh 30.04 in1017.3 mb - 0.00 in0.0 mm 0.00 in0.0 mm
01:40 PM 75.6°F24.2°C 68.7°F20.4°C 79% 4.0 mph SSW6.4 kmh SSW 6.0 mph9.7 kmh 30.03 in1016.9 mb - 0.00 in0.0 mm 0.00 in0.0 mm
01:50 PM 74.6°F23.7°C 68.4°F20.2°C 81% 3.1 mph SSW5.0 kmh SSW 5.0 mph8.0 kmh 30.02 in1016.6 mb - 0.00 in0.0 mm 0.00 in0.0 mm
02:00 PM 75.6°F24.2°C 69.4°F20.8°C 81% 1.8 mph SSW2.9 kmh SSW 6.0 mph9.7 kmh 30.02 in1016.6 mb - 0.00 in0.0 mm 0.00 in0.0 mm
02:10 PM 76.0°F24.4°C 69.0°F20.6°C 79% 1.7 mph SSW2.7 kmh SSW 3.0 mph4.8 kmh 30.02 in1016.6 mb - 0.00 in0.0 mm 0.00 in0.0 mm
02:20 PM 76.1°F24.5°C 69.1°F20.6°C 79% 4.7 mph SSW7.6 kmh SSW 7.0 mph11.3 kmh 30.02 in1016.6 mb - 0.00 in0.0 mm 0.00 in0.0 mm
02:30 PM 75.1°F23.9°C 68.1°F20.1°C 79% 1.1 mph SSW1.8 kmh SSW 2.0 mph3.2 kmh 30.02 in1016.6 mb - 0.00 in0.0 mm 0.00 in0.0 mm
02:40 PM 75.5°F24.2°C 67.7°F19.8°C 77% 2.6 mph SSW4.2 kmh SSW 4.0 mph6.4 kmh 30.01 in1016.3 mb - 0.00 in0.0 mm 0.00 in0.0 mm
02:50 PM 76.4°F24.7°C 68.7°F20.4°C 77% 4.1 mph SSW6.6 kmh SSW 5.0 mph8.0 kmh 30.01 in1016.3 mb - 0.00 in0.0 mm 0.00 in0.0 mm
03:00 PM 75.8°F24.3°C 68.5°F20.3°C 78% 2.1 mph SSW3.4 kmh SSW 3.0 mph4.8 kmh 30.01 in1016.3 mb - 0.00 in0.0 mm 0.00 in0.0 mm
03:10 PM 75.8°F24.3°C 67.7°F19.8°C 76% 4.1 mph SSW6.6 kmh SSW 6.0 mph9.7 kmh 30.01 in1016.3 mb - 0.00 in0.0 mm 0.00 in0.0 mm
03:20 PM 75.4°F24.1°C 68.0°F20.0°C 78% 3.1 mph SSW5.0 kmh SSW 5.0 mph8.0 kmh 30.02 in1016.6 mb - 0.00 in0.0 mm 0.00 in0.0 mm
03:30 PM 75.8°F24.3°C 68.8°F20.4°C 79% 2.0 mph SSW3.2 kmh SSW 6.0 mph9.7 kmh 30.01 in1016.3 mb - 0.00 in0.0 mm 0.00 in0.0 mm
03:40 PM 75.4°F24.1°C 68.8°F20.4°C 80% 2.2 mph SSW3.5 kmh SSW 5.0 mph8.0 kmh 30.01 in1016.3 mb - 0.00 in0.0 mm 0.00 in0.0 mm
03:50 PM 74.8°F23.8°C 68.9°F20.5°C 82% 2.0 mph SSW3.2 kmh SSW 5.0 mph8.0 kmh 30.01 in1016.3 mb - 0.00 in0.0 mm 0.00 in0.0 mm
04:00 PM 75.0°F23.9°C 69.5°F20.8°C 83% 3.4 mph SSW5.5 kmh SSW 5.0 mph8.0 kmh 30.01 in1016.3 mb - 0.00 in0.0 mm 0.00 in0.0 mm
04:10 PM 75.1°F23.9°C 69.2°F20.7°C 82% 3.8 mph SSW6.1 kmh SSW 7.0 mph11.3 kmh 30.01 in1016.3 mb - 0.00 in0.0 mm 0.00 in0.0 mm
04:20 PM 73.4°F23.0°C 67.9°F19.9°C 83% 1.8 mph SSW2.9 kmh SSW 5.0 mph8.0 kmh 30.02 in1016.6 mb - 0.00 in0.0 mm 0.00 in0.0 mm
04:30 PM 73.1°F22.8°C 68.7°F20.4°C 86% 3.8 mph SSW6.1 kmh SSW 7.0 mph11.3 kmh 30.01 in1016.3 mb - 0.00 in0.0 mm 0.00 in0.0 mm
04:40 PM 73.9°F23.3°C 69.1°F20.6°C 85% 4.3 mph SSW6.9 kmh SSW 7.0 mph11.3 kmh 30.01 in1016.3 mb - 0.00 in0.0 mm 0.00 in0.0 mm
04:50 PM 74.0°F23.3°C 68.9°F20.5°C 84% 5.2 mph SSW8.4 kmh SSW 9.0 mph14.5 kmh 30.01 in1016.3 mb - 0.00 in0.0 mm 0.00 in0.0 mm
05:00 PM 74.2°F23.4°C 69.1°F20.6°C 84% 4.4 mph SSW7.1 kmh SSW 7.0 mph11.3 kmh 30.01 in1016.3 mb - 0.00 in0.0 mm 0.00 in0.0 mm
05:10 PM 74.6°F23.7°C 69.4°F20.8°C 84% 4.5 mph SSW7.2 kmh SSW 7.0 mph11.3 kmh 30.00 in1015.9 mb - 0.00 in0.0 mm 0.00 in0.0 mm
05:20 PM 74.6°F23.7°C 69.1°F20.6°C 83% 5.8 mph SSW9.3 kmh SSW 9.0 mph14.5 kmh 30.00 in1015.9 mb - 0.00 in0.0 mm 0.00 in0.0 mm
05:30 PM 74.0°F23.3°C 68.9°F20.5°C 84% 4.9 mph SSW7.9 kmh SSW 9.0 mph14.5 kmh 30.01 in1016.3 mb - 0.00 in0.0 mm 0.00 in0.0 mm
05:40 PM 73.7°F23.2°C 68.5°F20.3°C 84% 6.0 mph SSW9.7 kmh SSW 9.0 mph14.5 kmh 30.01 in1016.3 mb - 0.00 in0.0 mm 0.00 in0.0 mm
05:50 PM 72.8°F22.7°C 68.4°F20.2°C 86% 4.4 mph SSW7.1 kmh SSW 6.0 mph9.7 kmh 30.01 in1016.3 mb - 0.00 in0.0 mm 0.00 in0.0 mm
06:00 PM 72.4°F22.4°C 68.3°F20.2°C 87% 4.4 mph SSW7.1 kmh SSW 6.0 mph9.7 kmh 30.01 in1016.3 mb - 0.00 in0.0 mm 0.00 in0.0 mm
06:10 PM 72.2°F22.3°C 68.1°F20.1°C 87% 4.3 mph SSW6.9 kmh SSW 6.0 mph9.7 kmh 30.01 in1016.3 mb - 0.00 in0.0 mm 0.00 in0.0 mm
06:20 PM 72.2°F22.3°C 68.4°F20.2°C 88% 3.4 mph SSW5.5 kmh SSW 7.0 mph11.3 kmh 30.01 in1016.3 mb - 0.00 in0.0 mm 0.00 in0.0 mm
06:30 PM 72.1°F22.3°C 68.0°F20.0°C 87% 5.4 mph SSW8.7 kmh SSW 10.0 mph16.1 kmh 30.01 in1016.3 mb - 0.00 in0.0 mm 0.00 in0.0 mm
06:40 PM 71.7°F22.1°C 67.9°F19.9°C 88% 4.1 mph SSW6.6 kmh SSW 7.0 mph11.3 kmh 30.01 in1016.3 mb - 0.00 in0.0 mm 0.00 in0.0 mm
06:50 PM 71.4°F21.9°C 67.7°F19.8°C 88% 5.0 mph SSW8.0 kmh SSW 8.0 mph12.9 kmh 30.00 in1015.9 mb - 0.00 in0.0 mm 0.00 in0.0 mm
07:00 PM 70.9°F21.6°C 67.2°F19.6°C 88% 5.0 mph SSW8.0 kmh SSW 9.0 mph14.5 kmh 30.01 in1016.3 mb - 0.00 in0.0 mm 0.00 in0.0 mm
07:10 PM 70.6°F21.4°C 66.9°F19.4°C 88% 6.1 mph SSW9.8 kmh SSW 10.0 mph16.1 kmh 30.01 in1016.3 mb - 0.00 in0.0 mm 0.00 in0.0 mm
07:20 PM 70.2°F21.2°C 66.8°F19.3°C 89% 5.4 mph SSW8.7 kmh SSW 8.0 mph12.9 kmh 30.02 in1016.6 mb - 0.00 in0.0 mm 0.00 in0.0 mm
07:30 PM 69.8°F21.0°C 66.7°F19.3°C 90% 3.2 mph SSW5.1 kmh SSW 5.0 mph8.0 kmh 30.03 in1016.9 mb - 0.00 in0.0 mm 0.00 in0.0 mm
07:40 PM 69.4°F20.8°C 66.3°F19.1°C 90% 4.4 mph SSW7.1 kmh SSW 7.0 mph11.3 kmh 30.03 in1016.9 mb - 0.00 in0.0 mm 0.00 in0.0 mm
07:50 PM 69.0°F20.6°C 66.3°F19.1°C 91% 3.1 mph SSW5.0 kmh SSW 5.0 mph8.0 kmh 30.03 in1016.9 mb - 0.00 in0.0 mm 0.00 in0.0 mm
08:00 PM 68.7°F20.4°C 66.0°F18.9°C 91% 5.2 mph SSW8.4 kmh SSW 7.0 mph11.3 kmh 30.03 in1016.9 mb - 0.00 in0.0 mm 0.00 in0.0 mm
08:10 PM 68.4°F20.2°C 66.0°F18.9°C 92% 4.5 mph SSW7.2 kmh SSW 6.0 mph9.7 kmh 30.03 in1016.9 mb - 0.00 in0.0 mm 0.00 in0.0 mm
08:20 PM 68.2°F20.1°C 65.8°F18.8°C 92% 1.5 mph SSW2.4 kmh SSW 5.0 mph8.0 kmh 30.04 in1017.3 mb - 0.00 in0.0 mm 0.00 in0.0 mm
08:30 PM 68.3°F20.2°C 65.9°F18.8°C 92% 2.2 mph SSW3.5 kmh SSW 5.0 mph8.0 kmh 30.04 in1017.3 mb - 0.00 in0.0 mm 0.00 in0.0 mm
08:40 PM 68.3°F20.2°C 65.9°F18.8°C 92% 3.0 mph SSW4.8 kmh SSW 5.0 mph8.0 kmh 30.04 in1017.3 mb - 0.00 in0.0 mm 0.00 in0.0 mm
08:50 PM 68.3°F20.2°C 66.2°F19.0°C 93% 2.6 mph SSW4.2 kmh SSW 4.0 mph6.4 kmh 30.05 in1017.6 mb - 0.00 in0.0 mm 0.00 in0.0 mm
09:00 PM 68.4°F20.2°C 66.3°F19.1°C 93% 1.2 mph SSW1.9 kmh SSW 4.0 mph6.4 kmh 30.05 in1017.6 mb - 0.00 in0.0 mm 0.00 in0.0 mm
09:10 PM 68.1°F20.1°C 66.0°F18.9°C 93% Calm Calm -- 30.05 in1017.6 mb - 0.00 in0.0 mm 0.00 in0.0 mm
09:20 PM 68.1°F20.1°C 66.0°F18.9°C 93% Calm Calm 1.0 mph1.6 kmh 30.05 in1017.6 mb - 0.00 in0.0 mm 0.00 in0.0 mm
09:30 PM 67.9°F19.9°C 65.8°F18.8°C 93% 0.4 mph SSW0.6 kmh SSW 2.0 mph3.2 kmh 30.05 in1017.6 mb - 0.00 in0.0 mm 0.00 in0.0 mm
09:40 PM 67.6°F19.8°C 65.2°F18.4°C 92% Calm Calm -- 30.05 in1017.6 mb - 0.00 in0.0 mm 0.00 in0.0 mm
09:50 PM 67.6°F19.8°C 65.1°F18.4°C 92% Calm Calm -- 30.05 in1017.6 mb - 0.00 in0.0 mm 0.00 in0.0 mm
10:00 PM 67.4°F19.7°C 65.3°F18.5°C 93% Calm Calm -- 30.05 in1017.6 mb - 0.00 in0.0 mm 0.00 in0.0 mm
10:10 PM 67.4°F19.7°C 65.3°F18.5°C 93% 0.6 mph SSW1.0 kmh SSW 2.0 mph3.2 kmh 30.05 in1017.6 mb - 0.00 in0.0 mm 0.00 in0.0 mm
10:20 PM 67.3°F19.6°C 65.2°F18.4°C 93% 0.4 mph SSW0.6 kmh SSW 2.0 mph3.2 kmh 30.05 in1017.6 mb - 0.00 in0.0 mm 0.00 in0.0 mm
10:30 PM 67.1°F19.5°C 64.7°F18.2°C 92% 1.5 mph SSW2.4 kmh SSW 3.0 mph4.8 kmh 30.06 in1017.9 mb - 0.00 in0.0 mm 0.00 in0.0 mm
10:40 PM 67.1°F19.5°C 65.0°F18.3°C 93% 0.1 mph SSW0.2 kmh SSW 1.0 mph1.6 kmh 30.06 in1017.9 mb - 0.00 in0.0 mm 0.00 in0.0 mm
10:50 PM 67.1°F19.5°C 65.0°F18.3°C 93% 2.1 mph SSW3.4 kmh SSW 4.0 mph6.4 kmh 30.06 in1017.9 mb - 0.00 in0.0 mm 0.00 in0.0 mm
11:00 PM 67.1°F19.5°C 65.0°F18.3°C 93% 3.6 mph SSW5.8 kmh SSW 4.0 mph6.4 kmh 30.06 in1017.9 mb - 0.00 in0.0 mm 0.00 in0.0 mm
11:10 PM 67.1°F19.5°C 65.0°F18.3°C 93% 2.6 mph SSW4.2 kmh SSW 3.0 mph4.8 kmh 30.06 in1017.9 mb - 0.00 in0.0 mm 0.00 in0.0 mm
11:20 PM 66.9°F19.4°C 64.8°F18.2°C 93% 0.8 mph SSW1.3 kmh SSW 4.0 mph6.4 kmh 30.06 in1017.9 mb - 0.00 in0.0 mm 0.00 in0.0 mm
11:30 PM 66.7°F19.3°C 64.9°F18.3°C 94% 0.6 mph SSW1.0 kmh SSW 1.0 mph1.6 kmh 30.06 in1017.9 mb - 0.00 in0.0 mm 0.00 in0.0 mm
11:40 PM 66.5°F19.2°C 64.4°F18.0°C 93% Calm Calm 1.0 mph1.6 kmh 30.05 in1017.6 mb - 0.00 in0.0 mm 0.00 in0.0 mm
11:50 PM 66.1°F18.9°C 64.1°F17.8°C 93% Calm Calm -- 30.06 in1017.9 mb - 0.00 in0.0 mm 0.00 in0.0 mm